Time;durP1;ratioP1;P1;durP2;ratioP2;P2;SDS_P1;SDS_P2;PMS_P1;PMS_P2;Temp;Humidity;BMP_temperature;BMP_pressure;BME280_temperature;BME280_humidity;BME280_pressure;Samples;Min_cycle;Max_cycle;Signal;HPM_P1;HPM_P2
2020/12/16 00:00:08;;;;;;;8.40;1.47;;;8.20;99.90;;;;;;5002658;28;20206;-89
2020/12/16 00:02:40;;;;;;;5.83;1.87;;;8.20;99.90;;;;;;5002309;28;20207;-93
2020/12/16 00:05:11;;;;;;;7.83;1.40;;;8.20;99.90;;;;;;5003677;28;20636;-94
2020/12/16 00:07:47;;;;;;;7.00;2.17;;;8.20;99.90;;;;;;5004928;28;20214;-92
2020/12/16 00:10:18;;;;;;;5.67;1.90;;;8.30;99.90;;;;;;5003535;28;20236;-94
2020/12/16 00:12:55;;;;;;;6.97;1.60;;;8.30;99.90;;;;;;5000264;28;20312;-91
2020/12/16 00:15:26;;;;;;;8.07;2.00;;;8.30;99.90;;;;;;4984363;28;20218;-92
2020/12/16 00:17:57;;;;;;;16.27;2.57;;;8.30;99.90;;;;;;4988111;28;20197;-90
2020/12/16 00:20:29;;;;;;;7.30;1.87;;;8.30;99.90;;;;;;4997952;28;20221;-89
2020/12/16 00:23:03;;;;;;;7.27;2.40;;;8.30;99.90;;;;;;4974547;28;20569;-91
2020/12/16 00:25:35;;;;;;;8.60;1.80;;;8.30;99.90;;;;;;5001843;28;20245;-93
2020/12/16 00:28:07;;;;;;;5.83;1.80;;;8.20;99.90;;;;;;4991119;28;20564;-91
2020/12/16 00:30:38;;;;;;;12.67;2.23;;;8.10;99.90;;;;;;5001471;28;20221;-88
2020/12/16 00:33:09;;;;;;;7.30;2.50;;;8.10;99.90;;;;;;4995469;28;20236;-91
2020/12/16 00:35:43;;;;;;;13.27;2.00;;;8.10;99.90;;;;;;5007406;28;20219;-96
2020/12/16 00:40:56;;;;;;;8.87;1.87;;;8.10;99.90;;;;;;5005798;28;20272;-93
2020/12/16 00:43:33;;;;;;;12.77;2.30;;;8.00;99.90;;;;;;5004936;28;20219;-94
2020/12/16 00:46:04;;;;;;;8.13;2.20;;;8.00;99.90;;;;;;5000897;28;20210;-93
2020/12/16 00:48:37;;;;;;;10.10;2.50;;;8.10;99.90;;;;;;5000133;28;20210;-92
2020/12/16 00:51:11;;;;;;;8.07;2.00;;;8.10;99.90;;;;;;4999962;28;20201;-95
2020/12/16 00:53:55;;;;;;;;;;;;;;;;;;;;;
2020/12/16 00:56:31;;;;;;;8.43;1.97;;;8.20;99.90;;;;;;4981608;28;20401;-93
2020/12/16 00:59:12;;;;;;;6.10;1.80;;;8.20;99.90;;;;;;5001225;28;20248;-90
2020/12/16 01:01:49;;;;;;;10.60;2.27;;;8.10;99.90;;;;;;4994621;28;20202;-92
2020/12/16 01:04:22;;;;;;;10.70;2.03;;;8.00;99.90;;;;;;4997113;28;20585;-94
2020/12/16 01:06:53;;;;;;;10.07;1.90;;;8.00;99.90;;;;;;5003414;28;20233;-93
2020/12/16 01:09:23;;;;;;;10.60;2.13;;;7.90;99.90;;;;;;5002714;28;20249;-93
2020/12/16 01:11:54;;;;;;;5.20;1.80;;;7.90;99.90;;;;;;5001614;28;20204;-92
2020/12/16 01:14:26;;;;;;;9.00;1.53;;;7.90;99.90;;;;;;4999881;28;20210;-90
2020/12/16 01:16:57;;;;;;;9.50;2.03;;;7.90;99.90;;;;;;4999185;28;20253;-90
2020/12/16 01:19:28;;;;;;;10.93;2.50;;;8.00;99.90;;;;;;4998534;28;20222;-92
2020/12/16 01:22:01;;;;;;;9.87;2.07;;;8.00;99.90;;;;;;4996768;28;20199;-92
2020/12/16 01:24:32;;;;;;;13.17;2.30;;;8.00;99.90;;;;;;4999275;28;20329;-92
2020/12/16 01:27:03;;;;;;;14.43;2.30;;;8.00;99.90;;;;;;4999411;28;20211;-92
2020/12/16 01:29:38;;;;;;;9.37;1.83;;;8.00;99.90;;;;;;4999360;28;20239;-93
2020/12/16 01:32:15;;;;;;;10.27;2.47;;;8.00;99.90;;;;;;4997794;28;20325;-91
2020/12/16 01:34:47;;;;;;;9.77;2.40;;;8.10;99.90;;;;;;5005373;28;20204;-92
2020/12/16 01:37:18;;;;;;;11.20;2.33;;;8.00;99.90;;;;;;5001148;28;20206;-90
2020/12/16 01:39:52;;;;;;;13.50;2.83;;;8.10;99.90;;;;;;5001589;28;20234;-90
2020/12/16 01:42:27;;;;;;;10.90;2.60;;;8.10;99.90;;;;;;5007976;28;20273;-91
2020/12/16 01:45:00;;;;;;;13.97;2.53;;;8.10;99.90;;;;;;5000495;28;20214;-89
2020/12/16 01:47:31;;;;;;;18.80;2.53;;;8.20;99.90;;;;;;4995668;28;20237;-88
2020/12/16 01:50:05;;;;;;;15.63;2.83;;;8.10;99.90;;;;;;5004161;28;20210;-89
2020/12/16 01:52:39;;;;;;;12.43;3.17;;;8.10;99.90;;;;;;5001624;28;20241;-92
2020/12/16 01:55:13;;;;;;;14.47;3.17;;;8.10;99.90;;;;;;5010089;28;20316;-94
2020/12/16 01:57:51;;;;;;;14.00;3.23;;;8.10;99.90;;;;;;5002243;28;20211;-93
2020/12/16 02:00:31;;;;;;;15.03;2.80;;;8.10;99.90;;;;;;5010242;28;20204;-93
2020/12/16 02:03:06;;;;;;;15.87;3.10;;;8.10;99.90;;;;;;5008289;28;20194;-92
2020/12/16 02:05:41;;;;;;;10.47;2.83;;;8.10;99.90;;;;;;5026106;28;20620;-91
2020/12/16 02:08:14;;;;;;;12.97;3.10;;;8.10;99.90;;;;;;4989912;28;20206;-92
2020/12/16 02:10:46;;;;;;;15.10;3.37;;;8.10;99.90;;;;;;4994298;28;20680;-90
2020/12/16 02:13:17;;;;;;;12.20;2.43;;;8.20;99.90;;;;;;4982398;28;20758;-93
2020/12/16 02:15:49;;;;;;;14.50;3.27;;;8.20;99.90;;;;;;4979294;28;20239;-93
2020/12/16 02:18:23;;;;;;;13.43;2.90;;;8.20;99.90;;;;;;5014537;28;20248;-94
2020/12/16 02:21:02;;;;;;;11.97;3.03;;;8.20;99.90;;;;;;5009495;28;20202;-91
2020/12/16 02:23:51;;;;;;;11.97;3.17;;;8.10;99.90;;;;;;4994086;28;20212;-92
2020/12/16 02:26:24;;;;;;;10.20;3.03;;;8.20;99.90;;;;;;5024566;28;20235;-92
2020/12/16 02:29:00;;;;;;;12.63;2.33;;;8.20;99.90;;;;;;5008538;28;20206;-91
2020/12/16 02:31:36;;;;;;;10.93;2.73;;;8.20;99.90;;;;;;5009460;28;20202;-92
2020/12/16 02:34:07;;;;;;;9.30;2.33;;;8.20;99.90;;;;;;5004304;28;20235;-90
2020/12/16 02:36:39;;;;;;;13.27;2.97;;;8.20;99.90;;;;;;5000961;28;20335;-92
2020/12/16 02:39:10;;;;;;;13.20;2.33;;;8.20;99.90;;;;;;4997833;28;20316;-92
2020/12/16 02:41:42;;;;;;;14.40;2.80;;;8.30;99.90;;;;;;4997490;28;20207;-96
2020/12/16 02:44:14;;;;;;;15.20;3.03;;;8.30;99.90;;;;;;4996914;28;20646;-92
2020/12/16 02:46:47;;;;;;;12.30;2.97;;;8.20;99.90;;;;;;4999001;28;20206;-91
2020/12/16 02:49:18;;;;;;;17.90;3.90;;;8.30;99.90;;;;;;4999806;28;20225;-91
2020/12/16 02:51:49;;;;;;;20.50;3.20;;;8.30;99.90;;;;;;5000306;28;20245;-91
2020/12/16 02:54:20;;;;;;;18.20;3.03;;;8.30;99.90;;;;;;4997484;28;20321;-92
2020/12/16 02:56:54;;;;;;;16.30;3.07;;;8.20;99.90;;;;;;4996707;28;20647;-92
2020/12/16 02:59:29;;;;;;;17.33;3.60;;;8.20;99.90;;;;;;5000180;28;20232;-92
2020/12/16 03:02:05;;;;;;;13.70;3.20;;;8.30;99.90;;;;;;5007461;28;20197;-92
2020/12/16 03:04:36;;;;;;;20.37;3.97;;;8.30;99.90;;;;;;4998694;28;20262;-91
2020/12/16 03:07:07;;;;;;;19.07;3.13;;;8.30;99.90;;;;;;5003588;28;20229;-92
2020/12/16 03:09:38;;;;;;;16.97;3.80;;;8.30;99.90;;;;;;5009329;28;20208;-92
2020/12/16 03:12:10;;;;;;;10.07;2.40;;;8.30;99.90;;;;;;5010581;28;20218;-91
2020/12/16 03:14:40;;;;;;;10.57;3.23;;;8.30;99.90;;;;;;4998386;28;20227;-91
2020/12/16 03:17:11;;;;;;;10.53;2.80;;;8.30;99.90;;;;;;4992001;28;20213;-89
2020/12/16 03:19:43;;;;;;;15.70;3.07;;;8.30;99.90;;;;;;5020066;28;20209;-91
2020/12/16 03:22:15;;;;;;;10.80;2.30;;;8.30;99.90;;;;;;5001003;28;20220;-90
2020/12/16 03:24:50;;;;;;;12.97;2.83;;;8.30;99.90;;;;;;5008400;28;20237;-89
2020/12/16 03:27:25;;;;;;;13.90;3.27;;;8.30;99.90;;;;;;5012116;28;20204;-91
2020/12/16 03:29:55;;;;;;;14.57;3.17;;;8.30;99.90;;;;;;5012537;28;20225;-91
2020/12/16 03:32:26;;;;;;;14.53;3.07;;;8.30;99.90;;;;;;4998092;28;20213;-91
2020/12/16 03:34:57;;;;;;;11.57;2.90;;;8.30;99.90;;;;;;5004721;28;20204;-92
2020/12/16 03:37:36;;;;;;;12.80;3.17;;;8.30;99.90;;;;;;5010451;28;20237;-91
2020/12/16 03:40:10;;;;;;;13.63;2.47;;;8.30;99.90;;;;;;5008998;28;20599;-90
2020/12/16 03:42:43;;;;;;;13.60;3.47;;;8.30;99.90;;;;;;5005115;28;20237;-90
2020/12/16 03:45:13;;;;;;;15.47;3.60;;;8.30;99.90;;;;;;5005836;28;20203;-91
2020/12/16 03:47:44;;;;;;;12.30;2.67;;;8.30;99.90;;;;;;4999745;28;20229;-91
2020/12/16 03:50:16;;;;;;;14.83;3.37;;;8.30;99.90;;;;;;5013909;28;20211;-91
2020/12/16 03:52:53;;;;;;;12.97;2.90;;;8.30;99.90;;;;;;5011728;28;20214;-90
2020/12/16 03:55:24;;;;;;;15.83;3.03;;;8.30;99.90;;;;;;5009705;28;20210;-92
2020/12/16 03:58:00;;;;;;;12.53;3.10;;;8.20;99.90;;;;;;5011163;28;20296;-90
2020/12/16 04:00:31;;;;;;;15.00;3.20;;;8.30;99.90;;;;;;5015059;28;20209;-91
2020/12/16 04:03:05;;;;;;;8.47;2.80;;;8.20;99.90;;;;;;5015710;28;20234;-93
2020/12/16 04:05:38;;;;;;;17.67;2.90;;;8.20;99.90;;;;;;5008824;28;20234;-90
2020/12/16 04:08:09;;;;;;;10.53;2.87;;;8.30;99.90;;;;;;5014693;28;20217;-91
2020/12/16 04:10:40;;;;;;;16.43;3.03;;;8.20;99.90;;;;;;5020038;28;20739;-92
2020/12/16 04:13:14;;;;;;;13.40;2.87;;;8.20;99.90;;;;;;5019903;28;20227;-91
2020/12/16 04:15:45;;;;;;;14.50;3.77;;;8.20;99.90;;;;;;5011597;28;20531;-90
2020/12/16 04:18:22;;;;;;;13.00;3.53;;;8.20;99.90;;;;;;5012250;28;20213;-92
2020/12/16 04:20:57;;;;;;;18.27;3.70;;;8.20;99.90;;;;;;5014624;28;20268;-91
2020/12/16 04:23:31;;;;;;;11.67;2.93;;;8.20;99.90;;;;;;4995559;28;20207;-92
2020/12/16 04:26:02;;;;;;;15.30;3.47;;;8.20;99.90;;;;;;5013772;28;20237;-92
2020/12/16 04:28:49;;;;;;;11.60;2.30;;;8.20;99.90;;;;;;5018934;28;20220;-90
2020/12/16 04:34:06;;;;;;;15.20;3.20;;;8.10;99.90;;;;;;5012027;23;20256;-90
2020/12/16 04:36:37;;;;;;;19.13;3.87;;;8.10;99.90;;;;;;4995929;28;20209;-92
2020/12/16 04:39:20;;;;;;;24.50;3.70;;;8.10;99.90;;;;;;4996779;28;20203;-93
2020/12/16 04:41:57;;;;;;;11.00;3.00;;;8.20;99.90;;;;;;5015112;28;20266;-93
2020/12/16 04:44:32;;;;;;;14.47;3.63;;;8.20;99.90;;;;;;5009222;28;20290;-92
2020/12/16 04:47:06;;;;;;;15.37;3.10;;;8.20;99.90;;;;;;4990748;28;20218;-93
2020/12/16 04:49:38;;;;;;;13.07;3.37;;;8.20;99.90;;;;;;5010513;28;20214;-93
2020/12/16 04:52:11;;;;;;;13.93;3.83;;;8.20;99.90;;;;;;5012691;28;20225;-94
2020/12/16 04:54:56;;;;;;;15.47;3.00;;;8.20;99.90;;;;;;5014024;28;20246;-94
2020/12/16 04:57:47;;;;;;;11.43;3.13;;;8.20;99.90;;;;;;5001056;28;20206;-93
2020/12/16 05:00:27;;;;;;;14.93;3.00;;;8.20;99.90;;;;;;5012773;28;20214;-91
2020/12/16 05:03:03;;;;;;;12.77;2.67;;;8.10;99.90;;;;;;5003068;28;20204;-93
2020/12/16 05:05:35;;;;;;;13.03;3.20;;;8.10;99.90;;;;;;5008364;28;20241;-92
2020/12/16 05:08:16;;;;;;;13.13;2.77;;;8.20;99.90;;;;;;5014045;28;20204;-90
2020/12/16 05:10:51;;;;;;;10.17;2.83;;;8.00;99.90;;;;;;4996415;28;20205;-90
2020/12/16 05:13:22;;;;;;;12.00;2.77;;;8.10;99.90;;;;;;4990201;28;20242;-92
2020/12/16 05:15:58;;;;;;;11.60;2.60;;;8.10;99.90;;;;;;4979596;28;20300;-92
2020/12/16 05:18:28;;;;;;;11.40;2.50;;;8.10;99.90;;;;;;4992408;28;20198;-93
2020/12/16 05:21:00;;;;;;;12.40;2.87;;;8.10;99.90;;;;;;4987286;28;20239;-92
2020/12/16 05:35:53;;;;;;;15.90;3.20;;;8.10;99.90;;;;;;4982402;28;20222;-93
2020/12/16 05:39:16;;;;;;;11.50;3.50;;;8.10;99.90;;;;;;4976032;28;20242;-93
2020/12/16 05:41:58;;;;;;;16.23;3.97;;;8.00;99.90;;;;;;4972128;28;20275;-94
2020/12/16 05:44:30;;;;;;;15.13;2.93;;;7.90;99.90;;;;;;4969541;28;20230;-92
2020/12/16 05:47:10;;;;;;;14.33;2.80;;;7.90;99.90;;;;;;4977571;28;20203;-93
2020/12/16 05:50:16;;;;;;;11.10;3.30;;;7.80;99.90;;;;;;4966065;28;20207;-94
2020/12/16 05:53:11;;;;;;;14.87;3.20;;;7.70;99.90;;;;;;4980228;28;20223;-92
2020/12/16 05:55:56;;;;;;;19.13;3.17;;;7.70;99.90;;;;;;4985783;28;20289;-92
2020/12/16 05:58:40;;;;;;;7.37;2.17;;;7.60;99.90;;;;;;4990134;28;20242;-93
2020/12/16 06:01:11;;;;;;;15.40;3.23;;;7.60;99.90;;;;;;4991570;28;20287;-93
2020/12/16 06:03:45;;;;;;;17.13;3.13;;;7.60;99.90;;;;;;4989835;28;20238;-94
2020/12/16 06:06:18;;;;;;;12.37;2.70;;;7.60;99.90;;;;;;4991160;28;20215;-92
2020/12/16 06:08:50;;;;;;;16.17;3.17;;;7.60;99.90;;;;;;4990889;28;20202;-91
2020/12/16 06:11:21;;;;;;;7.60;1.77;;;7.60;99.90;;;;;;4990537;28;20267;-90
2020/12/16 06:14:02;;;;;;;17.90;3.43;;;7.60;99.90;;;;;;4988276;28;20242;-91
2020/12/16 06:16:44;;;;;;;12.47;2.53;;;7.60;99.90;;;;;;4983847;28;20211;-92
2020/12/16 06:19:26;;;;;;;11.07;2.23;;;7.60;99.90;;;;;;4981429;28;20203;-92
2020/12/16 06:22:09;;;;;;;12.70;2.50;;;7.60;99.90;;;;;;4990122;28;20207;-92
2020/12/16 06:24:43;;;;;;;18.53;2.47;;;7.50;99.90;;;;;;4988904;28;20278;-92
2020/12/16 06:27:15;;;;;;;9.47;1.90;;;7.50;99.90;;;;;;4969556;28;20194;-92
2020/12/16 06:29:50;;;;;;;12.70;2.30;;;7.50;99.90;;;;;;4990664;28;20712;-92
2020/12/16 06:32:31;;;;;;;14.63;2.90;;;7.50;99.90;;;;;;4973307;28;20226;-90
2020/12/16 06:35:04;;;;;;;14.73;2.70;;;7.40;99.90;;;;;;4972725;28;20237;-91
2020/12/16 06:37:41;;;;;;;9.63;2.17;;;7.40;99.90;;;;;;4980554;28;20230;-90
2020/12/16 06:40:12;;;;;;;11.97;2.83;;;7.40;99.90;;;;;;4973564;28;20214;-92
2020/12/16 06:42:43;;;;;;;13.23;3.03;;;7.40;99.90;;;;;;4989242;28;20275;-91
2020/12/16 06:45:15;;;;;;;8.97;2.50;;;7.40;99.90;;;;;;4970655;28;20219;-91
2020/12/16 06:47:46;;;;;;;16.97;3.03;;;7.40;99.90;;;;;;4970448;29;20230;-90
2020/12/16 06:50:21;;;;;;;9.47;2.27;;;7.40;99.90;;;;;;4980688;28;20272;-89
2020/12/16 06:52:54;;;;;;;13.00;2.90;;;7.50;99.90;;;;;;4989041;28;20221;-91
2020/12/16 06:55:26;;;;;;;13.47;2.77;;;7.50;99.90;;;;;;4984303;28;20358;-91
2020/12/16 06:57:57;;;;;;;11.63;3.23;;;7.50;99.90;;;;;;4985253;28;20203;-91
2020/12/16 07:00:28;;;;;;;9.00;2.67;;;7.50;99.90;;;;;;4989400;28;20218;-91
2020/12/16 07:03:19;;;;;;;14.43;2.63;;;7.60;99.90;;;;;;4988650;28;20234;-92
2020/12/16 07:05:51;;;;;;;11.83;3.10;;;7.60;99.90;;;;;;4989591;28;20203;-91
2020/12/16 07:08:31;;;;;;;15.70;2.60;;;7.60;99.90;;;;;;4989095;28;20226;-92
2020/12/16 07:11:07;;;;;;;14.20;3.17;;;7.60;99.90;;;;;;4984569;28;20282;-91
2020/12/16 07:16:40;;;;;;;14.23;2.83;;;7.70;99.90;;;;;;4986595;28;20226;-91
2020/12/16 07:19:14;;;;;;;13.50;2.57;;;7.70;99.90;;;;;;4969395;28;20230;-89
2020/12/16 07:21:46;;;;;;;9.93;2.37;;;7.70;99.90;;;;;;4988603;28;20203;-91
2020/12/16 07:24:18;;;;;;;8.60;2.57;;;7.70;99.90;;;;;;4990137;28;20207;-92
2020/12/16 07:26:53;;;;;;;10.00;2.90;;;7.70;99.90;;;;;;4993676;28;20211;-91
2020/12/16 07:29:37;;;;;;;9.87;2.83;;;7.70;99.90;;;;;;4987442;28;20210;-92
2020/12/16 07:32:09;;;;;;;12.87;2.93;;;7.60;99.90;;;;;;4992869;28;20225;-92
2020/12/16 07:34:48;;;;;;;11.40;2.63;;;7.60;99.90;;;;;;4994104;28;20234;-93
2020/12/16 07:37:22;;;;;;;10.47;2.83;;;7.50;99.90;;;;;;4974478;29;20207;-90
2020/12/16 07:39:55;;;;;;;9.87;2.30;;;7.50;99.90;;;;;;4975951;29;20212;-90
2020/12/16 07:42:32;;;;;;;11.80;2.60;;;7.40;99.90;;;;;;4975693;29;20211;-92
2020/12/16 07:45:05;;;;;;;9.57;2.67;;;7.50;99.90;;;;;;4996010;28;20211;-92
2020/12/16 07:47:36;;;;;;;9.43;2.17;;;7.40;99.90;;;;;;5000471;28;20195;-92
2020/12/16 07:50:11;;;;;;;11.90;2.33;;;7.40;99.90;;;;;;4996358;28;20266;-92
2020/12/16 07:52:41;;;;;;;16.00;2.80;;;7.30;99.90;;;;;;4996214;28;20195;-90
2020/12/16 07:55:13;;;;;;;13.07;2.87;;;7.30;99.90;;;;;;4996830;28;20249;-91
2020/12/16 07:57:45;;;;;;;6.77;1.90;;;7.30;99.90;;;;;;4996303;28;20294;-90
2020/12/16 08:00:22;;;;;;;11.13;2.00;;;7.30;99.90;;;;;;4975844;29;20211;-91
2020/12/16 08:02:55;;;;;;;14.47;2.60;;;7.40;99.90;;;;;;4985881;28;20222;-91
2020/12/16 08:05:27;;;;;;;13.67;2.27;;;7.50;99.90;;;;;;4992869;28;20238;-90
2020/12/16 08:08:04;;;;;;;15.03;2.87;;;7.40;99.90;;;;;;4992744;28;20719;-92
2020/12/16 08:10:35;;;;;;;6.40;1.97;;;7.40;99.90;;;;;;4989452;28;20208;-92
2020/12/16 08:15:51;;;;;;;11.47;2.77;;;7.40;99.90;;;;;;4988093;28;20198;-91
2020/12/16 08:18:22;;;;;;;8.97;2.60;;;7.40;99.90;;;;;;4959708;28;20215;-91
2020/12/16 08:20:53;;;;;;;12.07;2.60;;;7.30;99.90;;;;;;4991446;28;20283;-91
2020/12/16 08:23:23;;;;;;;12.87;3.47;;;7.30;99.90;;;;;;4992228;28;20207;-91
2020/12/16 08:26:04;;;;;;;16.67;3.27;;;7.30;99.90;;;;;;4992738;28;20207;-92
2020/12/16 08:28:35;;;;;;;10.90;2.60;;;7.30;99.90;;;;;;4971998;28;20216;-91
2020/12/16 08:31:07;;;;;;;10.43;2.33;;;7.30;99.90;;;;;;4977032;28;20207;-93
2020/12/16 08:33:39;;;;;;;6.63;2.67;;;7.30;99.90;;;;;;4991893;28;20242;-93
2020/12/16 08:36:19;;;;;;;8.23;2.23;;;7.30;99.90;;;;;;4991877;28;20252;-92
2020/12/16 08:38:53;;;;;;;10.50;2.20;;;7.30;99.90;;;;;;4985304;28;20218;-91
2020/12/16 08:41:33;;;;;;;7.40;2.37;;;7.40;99.90;;;;;;4992441;28;20206;-92
2020/12/16 08:44:07;;;;;;;8.60;2.33;;;7.40;99.90;;;;;;4991756;28;20203;-92
2020/12/16 08:46:42;;;;;;;7.20;2.03;;;7.40;99.90;;;;;;4993640;28;20207;-92
2020/12/16 08:49:12;;;;;;;10.27;2.47;;;7.40;99.90;;;;;;4992826;28;20202;-91
2020/12/16 08:51:44;;;;;;;9.73;2.07;;;7.40;99.90;;;;;;4991970;28;20254;-93
2020/12/16 08:54:17;;;;;;;5.97;2.17;;;7.40;99.90;;;;;;4992608;28;20231;-92
2020/12/16 08:56:54;;;;;;;10.30;2.00;;;7.50;99.90;;;;;;4990494;28;20206;-91
2020/12/16 08:59:35;;;;;;;7.37;2.67;;;7.50;99.90;;;;;;4974976;28;20320;-93
2020/12/16 09:02:13;;;;;;;5.73;2.03;;;7.50;99.90;;;;;;4992175;28;20199;-93
2020/12/16 09:04:48;;;;;;;8.07;2.60;;;7.50;99.90;;;;;;4991632;28;20230;-93
2020/12/16 09:07:26;;;;;;;6.83;1.70;;;7.50;99.90;;;;;;4976846;28;20222;-91
2020/12/16 09:09:59;;;;;;;6.50;2.13;;;7.60;99.90;;;;;;4988604;28;20238;-92
2020/12/16 09:12:33;;;;;;;5.90;1.67;;;7.50;99.90;;;;;;4990216;28;20263;-93
2020/12/16 09:15:04;;;;;;;6.50;2.00;;;7.50;99.90;;;;;;4973045;29;20296;-92
2020/12/16 09:17:36;;;;;;;9.20;2.03;;;7.60;99.90;;;;;;4972271;29;20216;-91
2020/12/16 09:20:13;;;;;;;8.37;2.53;;;7.60;99.90;;;;;;4972197;29;20215;-90
2020/12/16 09:22:43;;;;;;;6.37;1.60;;;7.60;99.90;;;;;;4970903;28;20230;-89
2020/12/16 09:25:17;;;;;;;6.60;1.80;;;7.60;99.90;;;;;;4971322;29;20219;-91
2020/12/16 09:27:56;;;;;;;4.50;2.13;;;7.60;99.90;;;;;;4971730;29;20215;-91
2020/12/16 09:30:31;;;;;;;6.20;1.87;;;7.60;99.90;;;;;;4985601;28;20247;-90
2020/12/16 09:33:13;;;;;;;5.07;1.77;;;7.50;99.90;;;;;;4981000;28;20214;-91
2020/12/16 09:35:46;;;;;;;6.43;1.37;;;7.50;99.90;;;;;;4974688;28;20211;-90
2020/12/16 09:38:18;;;;;;;5.60;1.40;;;7.50;99.90;;;;;;4990032;28;20210;-91
2020/12/16 09:40:49;;;;;;;6.30;1.33;;;7.50;99.90;;;;;;4990919;28;20203;-91
2020/12/16 09:43:22;;;;;;;9.87;1.77;;;7.50;99.90;;;;;;4981446;28;20199;-90
2020/12/16 09:45:53;;;;;;;5.60;1.40;;;7.40;99.90;;;;;;4971811;29;20249;-91
2020/12/16 09:48:30;;;;;;;4.00;0.93;;;7.40;99.90;;;;;;4960590;28;20233;-91
2020/12/16 09:51:12;;;;;;;5.60;1.40;;;7.40;99.90;;;;;;4975113;28;20255;-91
2020/12/16 09:53:43;;;;;;;6.80;1.30;;;7.40;99.90;;;;;;4989815;28;20242;-93
2020/12/16 09:56:27;;;;;;;3.93;1.20;;;7.30;99.90;;;;;;4970005;28;20212;-91
2020/12/16 09:58:59;;;;;;;4.17;1.40;;;7.30;99.90;;;;;;4980401;28;20636;-91
2020/12/16 10:01:30;;;;;;;5.07;1.03;;;7.30;99.90;;;;;;4990957;28;20868;-91
2020/12/16 10:04:01;;;;;;;8.67;1.73;;;7.30;99.90;;;;;;4990765;28;20203;-90
2020/12/16 10:06:33;;;;;;;7.50;1.93;;;7.30;99.90;;;;;;4985068;28;20330;-90
2020/12/16 10:09:07;;;;;;;7.70;1.30;;;7.30;99.90;;;;;;4990259;28;20640;-90
2020/12/16 10:11:40;;;;;;;6.00;1.50;;;7.20;99.90;;;;;;4989728;28;20215;-90
2020/12/16 10:14:12;;;;;;;4.57;1.53;;;7.20;99.90;;;;;;4988215;28;20325;-91
2020/12/16 10:16:56;;;;;;;6.83;1.23;;;7.20;99.90;;;;;;4969598;29;20211;-90
2020/12/16 10:19:27;;;;;;;7.23;1.50;;;7.10;99.90;;;;;;4971387;29;20691;-90
2020/12/16 10:21:57;;;;;;;7.73;1.70;;;7.10;99.90;;;;;;4975681;28;20218;-89
2020/12/16 10:24:28;;;;;;;5.77;1.63;;;7.10;99.90;;;;;;4990015;28;20221;-91
2020/12/16 10:27:01;;;;;;;5.13;1.37;;;7.10;99.90;;;;;;4976385;28;20219;-92
2020/12/16 10:29:38;;;;;;;4.17;1.20;;;7.20;99.90;;;;;;4975482;28;20282;-92
2020/12/16 10:32:09;;;;;;;6.73;1.93;;;7.20;99.90;;;;;;4990139;28;20219;-91
2020/12/16 10:34:42;;;;;;;7.97;1.20;;;7.10;99.90;;;;;;4973609;28;20241;-91
2020/12/16 10:37:13;;;;;;;7.10;1.80;;;7.10;99.90;;;;;;4972735;28;20215;-91
2020/12/16 10:39:44;;;;;;;5.57;1.53;;;7.10;99.90;;;;;;4989798;28;20302;-91
2020/12/16 10:42:16;;;;;;;5.67;1.37;;;7.10;99.90;;;;;;4988828;28;20207;-92
2020/12/16 10:45:18;;;;;;;6.30;1.23;;;7.20;99.90;;;;;;4968564;28;20237;-92
2020/12/16 10:47:56;;;;;;;4.90;1.60;;;7.20;99.90;;;;;;4977385;28;20206;-92
2020/12/16 10:50:30;;;;;;;8.00;1.60;;;7.20;99.90;;;;;;4990763;28;20214;-92
2020/12/16 10:53:01;;;;;;;6.87;1.60;;;7.20;99.90;;;;;;4989777;28;20218;-92
2020/12/16 10:55:33;;;;;;;8.60;1.47;;;7.20;99.90;;;;;;4989689;28;20234;-91
2020/12/16 10:58:06;;;;;;;9.30;1.60;;;7.30;99.90;;;;;;4990473;28;20218;-91
2020/12/16 11:00:37;;;;;;;5.83;1.70;;;7.20;99.90;;;;;;4975874;28;20532;-92
2020/12/16 11:03:08;;;;;;;5.83;1.70;;;7.30;99.90;;;;;;4973026;28;20205;-91
2020/12/16 11:05:38;;;;;;;13.00;1.80;;;7.30;99.90;;;;;;4978872;28;20266;-92
2020/12/16 11:08:10;;;;;;;5.37;1.37;;;7.30;99.90;;;;;;4978825;28;20231;-92
2020/12/16 11:10:50;;;;;;;5.53;1.40;;;7.30;99.90;;;;;;4974476;28;20247;-91
2020/12/16 11:13:20;;;;;;;7.10;1.53;;;7.20;99.90;;;;;;4970494;28;20218;-91
2020/12/16 11:15:51;;;;;;;6.07;1.40;;;7.30;99.90;;;;;;4973994;28;20628;-90
2020/12/16 11:18:23;;;;;;;9.27;1.83;;;7.20;99.90;;;;;;4973715;28;20299;-91
2020/12/16 11:20:55;;;;;;;12.13;2.33;;;7.20;99.90;;;;;;4966195;28;20207;-91
2020/12/16 11:23:27;;;;;;;7.23;1.30;;;7.20;99.90;;;;;;4978179;28;20288;-91
2020/12/16 11:25:58;;;;;;;7.47;1.40;;;7.20;99.90;;;;;;4960102;29;20210;-92
2020/12/16 11:28:30;;;;;;;4.37;1.20;;;7.20;99.90;;;;;;4978666;28;20210;-92
2020/12/16 11:31:03;;;;;;;5.40;1.20;;;7.10;99.90;;;;;;4979544;28;20205;-91
2020/12/16 11:33:33;;;;;;;8.30;1.40;;;7.10;99.90;;;;;;4984949;28;20231;-90
2020/12/16 11:36:09;;;;;;;7.13;1.80;;;7.20;99.90;;;;;;4966955;28;20247;-93
2020/12/16 11:38:41;;;;;;;4.23;1.10;;;7.10;99.90;;;;;;4980449;28;20219;-94
2020/12/16 11:41:12;;;;;;;7.03;1.30;;;7.10;99.90;;;;;;4989627;28;20204;-94
2020/12/16 11:43:42;;;;;;;2.90;0.93;;;7.10;99.90;;;;;;4981138;28;20226;-93
2020/12/16 11:46:14;;;;;;;9.67;1.53;;;7.10;99.90;;;;;;4978883;28;20208;-92
2020/12/16 11:48:45;;;;;;;9.30;1.60;;;7.10;99.90;;;;;;4971909;28;20211;-93
2020/12/16 11:51:16;;;;;;;7.63;1.50;;;7.10;99.90;;;;;;4970609;29;20212;-93
2020/12/16 11:53:50;;;;;;;9.63;1.27;;;7.10;99.90;;;;;;4989395;28;20262;-93
2020/12/16 11:56:21;;;;;;;10.27;1.60;;;7.10;99.90;;;;;;4990399;28;20235;-93
2020/12/16 11:58:53;;;;;;;5.53;1.53;;;7.10;99.90;;;;;;4989796;28;20257;-93
2020/12/16 12:01:23;;;;;;;10.60;1.67;;;7.10;99.90;;;;;;4951899;28;20243;-95
2020/12/16 12:03:54;;;;;;;5.90;1.57;;;7.20;99.90;;;;;;4990125;28;20220;-94
2020/12/16 12:06:25;;;;;;;5.97;1.10;;;7.20;99.90;;;;;;4974124;28;20227;-92
2020/12/16 12:08:58;;;;;;;7.47;1.47;;;7.30;99.90;;;;;;4989700;28;20247;-92
2020/12/16 12:11:29;;;;;;;6.60;1.20;;;7.30;99.90;;;;;;4960178;28;20235;-92
2020/12/16 12:14:00;;;;;;;7.77;1.43;;;7.30;99.90;;;;;;4993338;28;20335;-92
2020/12/16 12:16:31;;;;;;;7.53;1.57;;;7.30;99.90;;;;;;4976976;28;20310;-92
2020/12/16 12:19:02;;;;;;;8.43;1.63;;;7.30;99.90;;;;;;4992535;28;20290;-91
2020/12/16 12:21:33;;;;;;;8.53;1.50;;;7.30;99.90;;;;;;4977090;28;20211;-93
2020/12/16 12:24:06;;;;;;;5.13;1.20;;;7.30;99.90;;;;;;4989613;28;20215;-92
2020/12/16 12:26:37;;;;;;;4.83;1.20;;;7.30;99.90;;;;;;4993201;28;20226;-93
2020/12/16 12:29:08;;;;;;;5.33;1.43;;;7.30;99.90;;;;;;4988018;28;20632;-92
2020/12/16 12:31:38;;;;;;;7.00;1.40;;;7.30;99.90;;;;;;4992047;28;20199;-94
2020/12/16 12:34:11;;;;;;;7.93;1.20;;;7.30;99.90;;;;;;4992665;28;20282;-93
2020/12/16 12:36:43;;;;;;;7.43;1.60;;;7.30;99.90;;;;;;4992411;28;20226;-92
2020/12/16 12:39:16;;;;;;;6.87;1.37;;;7.30;99.90;;;;;;4977896;28;20196;-92
2020/12/16 12:41:46;;;;;;;3.63;1.17;;;7.30;99.90;;;;;;4975310;28;20211;-92
2020/12/16 12:44:18;;;;;;;7.03;2.07;;;7.30;99.90;;;;;;4993353;28;20624;-91
2020/12/16 12:46:52;;;;;;;8.03;1.60;;;7.30;99.90;;;;;;4975312;28;20215;-91
2020/12/16 12:49:29;;;;;;;6.20;1.57;;;7.30;99.90;;;;;;4974966;29;20215;-91
2020/12/16 12:51:59;;;;;;;6.90;1.40;;;7.30;99.90;;;;;;4972994;29;20219;-91
2020/12/16 12:54:32;;;;;;;6.93;1.83;;;7.30;99.90;;;;;;4981166;28;20297;-91
2020/12/16 12:57:02;;;;;;;6.07;1.53;;;7.30;99.90;;;;;;4992107;28;20211;-91
2020/12/16 12:59:34;;;;;;;5.63;1.13;;;7.30;99.90;;;;;;4991952;28;20244;-92
2020/12/16 13:02:06;;;;;;;8.93;1.37;;;7.30;99.90;;;;;;4990534;28;20215;-91
2020/12/16 13:04:38;;;;;;;5.27;1.33;;;7.30;99.90;;;;;;4992771;28;20285;-91
2020/12/16 13:07:09;;;;;;;3.17;1.17;;;7.40;99.90;;;;;;4992051;28;20279;-91
2020/12/16 13:09:43;;;;;;;7.13;1.53;;;7.40;99.90;;;;;;4985473;28;20203;-91
2020/12/16 13:12:15;;;;;;;5.10;1.07;;;7.40;99.90;;;;;;4974727;28;20207;-91
2020/12/16 13:14:46;;;;;;;7.63;1.47;;;7.40;99.90;;;;;;4983418;28;20262;-91
2020/12/16 13:17:22;;;;;;;7.57;1.23;;;7.40;99.90;;;;;;4991149;28;20253;-91
2020/12/16 13:19:57;;;;;;;6.37;1.37;;;7.50;99.90;;;;;;4973285;28;20218;-92
2020/12/16 13:22:29;;;;;;;6.17;1.20;;;7.60;99.90;;;;;;4971715;28;20203;-92
2020/12/16 13:25:02;;;;;;;6.00;1.40;;;7.60;99.90;;;;;;4978692;28;20199;-91
2020/12/16 13:27:33;;;;;;;5.00;1.30;;;7.60;99.90;;;;;;4973463;29;20241;-91
2020/12/16 13:30:15;;;;;;;6.60;1.40;;;7.60;99.90;;;;;;4984492;28;20722;-88
2020/12/16 13:32:46;;;;;;;4.17;0.97;;;7.60;99.90;;;;;;4992285;28;20242;-91
2020/12/16 13:35:16;;;;;;;4.30;1.33;;;7.60;99.90;;;;;;4994252;28;20222;-91
2020/12/16 13:37:47;;;;;;;4.33;1.07;;;7.70;99.90;;;;;;4976193;28;20212;-91
2020/12/16 13:40:20;;;;;;;5.03;0.90;;;7.80;99.90;;;;;;4992055;28;20255;-91
2020/12/16 13:42:53;;;;;;;3.30;0.90;;;7.80;99.90;;;;;;4992181;28;20199;-90
2020/12/16 13:45:26;;;;;;;2.67;0.97;;;7.80;99.90;;;;;;4998813;28;20194;-91
2020/12/16 13:47:57;;;;;;;6.17;1.03;;;7.80;99.90;;;;;;4962029;28;20219;-90
2020/12/16 13:50:30;;;;;;;7.17;1.23;;;7.80;99.90;;;;;;4972864;28;20259;-91